• Join FlightAware (Why Join?)
  • Login
  • US Flag 
08:04AM EDT


 

Airport Tracker/Info


-or-


 

Live Flight TrackerFlight Track Log ✈ AWE1913 ✈ 13-Apr-2013 ✈ KPIT - KPHL

Flight Track Log - Related Links

Times and Time Zones

All times are in EDT time to prevent confusion due to time zone crossing. See the AWE1913 flight status page for this flight to view local times or setup timezone preferences in your user account.

Time Position Orientation Groundspeed Altitude Reporting Facility
EDT Latitude Longitude Course Direction KTS MPH feet Rate Location/Type
07:54AM 40.4038 -79.3996 102° East  Level Estimated
07:55AM 40.3809 -79.1917 98° East  Level Estimated
07:55AM 40.5650 -80.0560 97° East 336 387 10,900  Level FlightAware
07:56AM 40.3577 -78.9838 97° East  Level Estimated
07:56AM 40.5470 -79.9620 104° East 371 427 12,500  Level FlightAware
07:57AM 40.5290 -79.8710 105° East 374 430 13,400 2,040 Climbing FlightAware
07:57AM 40.5290 -79.8700 90° East 380 437 15,400 1,380 Climbing FlightAware
07:58AM 40.5150 -79.7940 104° East 380 437 15,400 1,140 Level FlightAware
07:59AM 40.5400 -79.9250 284° West 19,900 1,260 Climbing FlightAware
08:04AM 40.3170 -78.8020 104° East 437 503 23,000 480 Climbing FlightAware
08:05AM 40.3170 -78.6920 90° East 438 504 23,000  Level FlightAware
08:05AM 40.3170 -78.5730 90° East 437 503 23,000  Level FlightAware
08:06AM 40.3170 -78.5730 90° East 435 501 23,000  Level FlightAware
08:07AM 40.3160 -78.3420 90° East 434 499 23,000  Level FlightAware
08:08AM 40.3150 -78.2070 91° East 23,000  Level FlightAware
08:08AM 40.3140 -78.1030 91° East 432 497 23,000  Level FlightAware
08:09AM 40.3140 -78.0210 90° East 432 497 23,000  Level FlightAware
08:10AM 40.3140 -77.9100 90° East 432 497 23,000 -420 Level FlightAware
08:15AM 40.2970 -77.0500 91° East 417 480 20,500 -540 Descending FlightAware
08:16AM 40.2760 -76.9540 106° East 411 473 19,900 -960 Descending FlightAware
08:17AM 40.2510 -76.8500 107° East 409 471 19,200 -1,080 Descending FlightAware
08:17AM 40.2327 -76.7692 106° East 407 468 18,600 -1,140 Descending FlightAware ADS-B
08:18AM 40.2154 -76.6949 107° East 406 467 18,100 -900 Descending FlightAware ADS-B
08:18AM 40.1988 -76.6244 107° East 405 466 17,700 -1,320 Descending FlightAware ADS-B
08:19AM 40.1803 -76.5453 107° East 401 461 16,700 -1,860 Descending FlightAware ADS-B
08:19AM 40.1625 -76.4700 107° East 395 455 15,700 -2,040 Descending FlightAware ADS-B
08:20AM 40.1463 -76.4011 107° East 394 453 14,600 -1,980 Descending FlightAware ADS-B
08:20AM 40.1297 -76.3312 107° East 385 443 13,700 -1,680 Descending FlightAware ADS-B
08:21AM 40.1210 -76.2883 105° East 383 441 13,200 -1,800 Descending FlightAware ADS-B
08:21AM 40.1154 -76.2191 96° East 380 437 12,200 -1,920 Descending FlightAware ADS-B
08:22AM 40.1107 -76.1501 95° East 376 433 11,300 -1,260 Descending FlightAware ADS-B
08:22AM 40.1059 -76.0797 95° East 354 407 10,900 -960 Descending FlightAware ADS-B
08:23AM 40.1012 -76.0141 95° East 336 387 10,300 -1,320 Descending FlightAware ADS-B
08:23AM 40.0992 -75.9856 95° East 334 384 9,900 -1,440 Descending FlightAware ADS-B
08:23AM 40.0969 -75.9530 95° East 331 381 9,600 -1,320 Descending FlightAware ADS-B
08:23AM 40.0945 -75.9194 95° East 324 373 9,200 -1,500 Descending FlightAware ADS-B
08:24AM 40.0924 -75.8894 95° East 322 371 8,800 -1,680 Descending FlightAware ADS-B
08:24AM 40.0900 -75.8569 96° East 323 372 8,300 -1,260 Descending FlightAware ADS-B
08:24AM 40.0877 -75.8244 95° East 315 362 8,100 -600 Descending FlightAware ADS-B
08:25AM 40.0857 -75.7951 95° East 313 360 8,000 -240 Descending FlightAware ADS-B
08:25AM 40.0836 -75.7658 95° East 305 351 8,000 -600 Level FlightAware ADS-B
08:25AM 40.0813 -75.7341 95° East 301 346 7,700 -1,200 Descending FlightAware ADS-B
08:25AM 40.0809 -75.7271 94° East 302 348 7,600 -720 Descending FlightAware ADS-B
08:25AM 40.0809 -75.7181 90° East 302 348 7,600 -720 Level FlightAware ADS-B
08:25AM 40.0814 -75.7106 85° East 302 348 7,500 -1,200 Descending FlightAware ADS-B
08:25AM 40.0834 -75.7004 76° East 301 346 7,400 -960 Descending FlightAware ADS-B
08:25AM 40.0871 -75.6885 68° East 299 344 7,300 -840 Descending FlightAware ADS-B
08:26AM 40.0966 -75.6642 63° Northeast 299 344 7,100 -660 Descending FlightAware ADS-B
08:26AM 40.1056 -75.6414 63° Northeast 298 343 7,000 -240 Descending FlightAware ADS-B
08:26AM 40.1157 -75.6160 63° Northeast 297 342 7,000  Level FlightAware ADS-B
08:27AM 40.1257 -75.5909 62° Northeast 299 344 7,000  Level FlightAware ADS-B
08:27AM 40.1353 -75.5663 63° Northeast 299 344 7,000  Level FlightAware ADS-B
08:27AM 40.1453 -75.5412 62° Northeast 298 343 7,000  Level FlightAware ADS-B
08:27AM 40.1549 -75.5170 63° Northeast 292 336 7,000  Level FlightAware ADS-B
08:28AM 40.1642 -75.4933 63° Northeast 283 326 7,000  Level FlightAware ADS-B
08:28AM 40.1730 -75.4704 63° Northeast 275 316 7,000  Level FlightAware ADS-B
08:28AM 40.1819 -75.4477 63° Northeast 275 316 7,000  Level FlightAware ADS-B
08:28AM 40.1908 -75.4250 63° Northeast 275 316 7,000  Level FlightAware ADS-B
08:29AM 40.2001 -75.4011 63° Northeast 277 319 7,000  Level FlightAware ADS-B
08:29AM 40.2090 -75.3777 64° Northeast 275 316 7,000  Level FlightAware ADS-B
08:29AM 40.2181 -75.3544 63° Northeast 275 316 7,000  Level FlightAware ADS-B
08:29AM 40.2214 -75.3454 64° Northeast 277 319 7,000  Level FlightAware ADS-B
08:29AM 40.2230 -75.3395 70° East 277 319 7,000  Level FlightAware ADS-B
08:29AM 40.2244 -75.3312 78° East 276 318 7,000  Level FlightAware ADS-B
08:29AM 40.2247 -75.3222 87° East 275 316 7,000  Level FlightAware ADS-B
08:30AM 40.2242 -75.3141 95° East 273 314 7,000  Level FlightAware ADS-B
08:30AM 40.2231 -75.3082 104° East 271 312 7,000  Level FlightAware ADS-B
08:30AM 40.2214 -75.3000 105° East 268 308 7,000  Level FlightAware ADS-B
08:30AM 40.2190 -75.2904 108° East 264 304 7,000  Level FlightAware ADS-B
08:30AM 40.2135 -75.2679 108° East 260 299 7,000  Level FlightAware ADS-B
08:30AM 40.2078 -75.2452 108° East 258 297 7,000  Level FlightAware ADS-B
08:30AM 40.2061 -75.2400 113° Southeast 259 298 7,000  Level FlightAware ADS-B
08:30AM 40.2037 -75.2345 120° Southeast 258 297 7,000  Level FlightAware ADS-B
08:30AM 40.1994 -75.2274 128° Southeast 256 295 7,000 -600 Level FlightAware ADS-B
08:31AM 40.1949 -75.2225 140° Southeast 254 292 6,900 -780 Descending FlightAware ADS-B
08:31AM 40.1918 -75.2200 148° Southeast 252 290 6,900 -1,020 Level FlightAware ADS-B
08:31AM 40.1881 -75.2178 156° South 249 287 6,800 -780 Descending FlightAware ADS-B
08:31AM 40.1833 -75.2158 162° South 245 282 6,800 -780 Level FlightAware ADS-B
08:31AM 40.1799 -75.2150 170° South 242 278 6,700 -1,680 Descending FlightAware ADS-B
08:31AM 40.1709 -75.2141 176° South 240 276 6,500 -1,620 Descending FlightAware ADS-B
08:31AM 40.1538 -75.2128 177° South 244 281 6,100 -960 Descending FlightAware ADS-B
08:31AM 40.1338 -75.2109 176° South 235 270 6,000 -240 Descending FlightAware ADS-B
08:32AM 40.1185 -75.2097 177° South 225 259 6,000  Level FlightAware ADS-B
08:32AM 40.1029 -75.2084 176° South 221 254 6,000  Level FlightAware ADS-B
08:32AM 40.0864 -75.2070 176° South 224 258 6,000  Level FlightAware ADS-B
08:33AM 40.0696 -75.2053 176° South 226 260 6,000  Level FlightAware ADS-B
08:33AM 40.0604 -75.2043 175° South 225 259 6,000  Level FlightAware ADS-B
08:33AM 40.0551 -75.2034 173° South 227 261 6,000  Level FlightAware ADS-B
08:33AM 40.0514 -75.2024 168° South 228 262 6,000  Level FlightAware ADS-B
08:33AM 40.0360 -75.1970 165° South 230 265 6,000  Level FlightAware ADS-B
08:33AM 40.0204 -75.1912 164° South 230 265 6,000  Level FlightAware ADS-B
08:34AM 40.0030 -75.1849 164° South 232 267 6,000  Level FlightAware ADS-B
08:34AM 39.9962 -75.1819 161° South 237 273 6,000  Level FlightAware ADS-B
08:34AM 39.9928 -75.1799 156° South 240 276 6,000  Level FlightAware ADS-B
08:34AM 39.9888 -75.1766 148° Southeast 244 281 6,000  Level FlightAware ADS-B
08:34AM 39.9852 -75.1729 142° Southeast 248 285 6,000  Level FlightAware ADS-B
08:34AM 39.9795 -75.1633 128° Southeast 250 288 6,000  Level FlightAware ADS-B
08:34AM 39.9780 -75.1592 116° Southeast 249 287 6,000  Level FlightAware ADS-B
08:34AM 39.9762 -75.1502 105° East 248 285 6,000  Level FlightAware ADS-B
08:34AM 39.9760 -75.1447 93° East 247 284 6,000  Level FlightAware ADS-B
08:34AM 39.9764 -75.1380 86° East 243 280 6,000  Level FlightAware ADS-B
08:34AM 39.9774 -75.1317 78° East 237 273 6,000  Level FlightAware ADS-B
08:35AM 39.9794 -75.1229 73° East 232 267 6,000  Level FlightAware ADS-B
08:35AM 39.9856 -75.1028 68° East 229 264 6,000 -480 Level FlightAware ADS-B
08:35AM 39.9896 -75.0891 69° East 229 264 5,800 -900 Descending FlightAware ADS-B
08:35AM 39.9947 -75.0688 72° East 227 261 5,600 -960 Descending FlightAware ADS-B
08:35AM 39.9977 -75.0560 73° East 223 257 5,400 -1,140 Descending FlightAware ADS-B
08:36AM 40.0026 -75.0336 74° East 223 257 5,100 -660 Descending FlightAware ADS-B
08:36AM 40.0080 -75.0094 74° East 218 251 5,000 -180 Descending FlightAware ADS-B
08:36AM 40.0157 -74.9743 74° East 220 253 5,000  Level FlightAware ADS-B
08:37AM 40.0205 -74.9525 74° East 217 250 5,000  Level FlightAware ADS-B
08:37AM 40.0256 -74.9298 74° East 218 251 5,000  Level FlightAware ADS-B
08:37AM 40.0301 -74.9095 74° East 219 252 5,000  Level FlightAware ADS-B
08:37AM 40.0313 -74.9028 77° East 221 254 5,000 -420 Level FlightAware ADS-B
08:38AM 40.0314 -74.8900 89° East 225 259 4,900 -540 Descending FlightAware ADS-B
08:38AM 40.0308 -74.8858 101° East 227 261 4,900 -900 Level FlightAware ADS-B
08:38AM 40.0293 -74.8804 110° East 227 261 4,800 -720 Descending FlightAware ADS-B
08:38AM 40.0271 -74.8749 118° Southeast 227 261 4,800 -780 Level FlightAware ADS-B
08:38AM 40.0251 -74.8711 125° Southeast 228 262 4,700 -2,040 Descending FlightAware ADS-B
08:38AM 40.0207 -74.8655 136° Southeast 227 261 4,500 -1,320 Descending FlightAware ADS-B
08:38AM 40.0136 -74.8600 149° Southeast 224 258 4,400 -1,320 Descending FlightAware ADS-B
08:38AM 40.0080 -74.8579 164° South 221 254 4,200 -1,200 Descending FlightAware ADS-B
08:38AM 40.0041 -74.8574 174° South 218 251 4,200 -900 Level FlightAware ADS-B
08:38AM 40.0008 -74.8576 183° South 213 245 4,100 -900 Descending FlightAware ADS-B
08:38AM 39.9973 -74.8583 189° South 211 243 4,100  Level FlightAware ADS-B
08:38AM 39.9918 -74.8610 201° Southwest 204 235 4,100 -540 Level FlightAware ADS-B
08:38AM 39.9868 -74.8653 213° Southwest 199 229 4,000 -300 Descending FlightAware ADS-B
08:39AM 39.9766 -74.8765 220° Southwest 198 228 4,000  Level FlightAware ADS-B
08:39AM 39.9643 -74.8909 222° Southwest 196 226 4,000  Level FlightAware ADS-B
08:39AM 39.9510 -74.9062 221° Southwest 195 224 4,000  Level FlightAware ADS-B
08:39AM 39.9478 -74.9103 224° Southwest 192 221 4,000 -360 Level FlightAware ADS-B
08:40AM 39.9414 -74.9216 234° Southwest 185 213 3,900 -360 Descending FlightAware ADS-B
08:40AM 39.9391 -74.9252 230° Southwest 183 211 3,900 -720 Level FlightAware ADS-B
08:40AM 39.9364 -74.9296 231° Southwest 180 207 3,800 -600 Descending FlightAware ADS-B
08:40AM 39.9285 -74.9430 232° Southwest 172 198 3,700 -540 Descending FlightAware ADS-B
08:40AM 39.9246 -74.9498 233° Southwest 163 188 3,600 -540 Descending FlightAware ADS-B
08:40AM 39.9235 -74.9524 241° Southwest 158 182 3,600 -900 Level FlightAware ADS-B
08:40AM 39.9226 -74.9553 248° West 154 177 3,500 -2,040 Descending FlightAware ADS-B
08:40AM 39.9223 -74.9584 263° West 152 175 3,400 -1,500 Descending FlightAware ADS-B
08:40AM 39.9224 -74.9623 272° West 149 171 3,300 -1,380 Descending FlightAware ADS-B
08:41AM 39.9226 -74.9663 274° West 151 174 3,200 -1,380 Descending FlightAware ADS-B
08:41AM 39.9227 -74.9711 272° West 154 177 3,100 -600 Descending FlightAware ADS-B
08:41AM 39.9225 -74.9759 267° West 154 177 3,100 -420 Level FlightAware ADS-B
08:41AM 39.9217 -74.9849 263° West 155 178 3,000 -300 Descending FlightAware ADS-B
08:41AM 39.9197 -74.9978 259° West 162 186 3,000  Level FlightAware ADS-B
08:41AM 39.9169 -75.0126 256° West 164 189 3,000 -120 Level FlightAware ADS-B
08:42AM 39.9102 -75.0467 256° West 165 190 2,900 -360 Descending FlightAware ADS-B
08:42AM 39.9073 -75.0610 255° West 162 186 2,700 -1,020 Descending FlightAware ADS-B
08:42AM 39.9044 -75.0759 256° West 159 183 2,400 -960 Descending FlightAware ADS-B
08:43AM 39.9013 -75.0913 255° West 144 166 2,200 -780 Descending FlightAware ADS-B
08:43AM 39.8990 -75.1031 256° West 131 151 2,000 -780 Descending FlightAware ADS-B
08:43AM 39.8966 -75.1154 256° West 125 144 1,800 -780 Descending FlightAware ADS-B
08:44AM 39.8944 -75.1267 256° West 130 150 1,600 -660 Descending FlightAware ADS-B
08:44AM 39.8926 -75.1360 256° West 135 155 1,500 -720 Descending FlightAware ADS-B
08:44AM 39.8903 -75.1470 255° West 130 150 1,300 -780 Descending FlightAware ADS-B
08:44AM 39.8876 -75.1610 256° West 129 148 1,100 -720 Descending FlightAware ADS-B
08:45AM 39.8849 -75.1745 255° West 129 148 900 -780 Descending FlightAware ADS-B
08:45AM 39.8826 -75.1860 255° West 128 147 700 -780 Descending FlightAware ADS-B
08:45AM 39.8802 -75.1980 255° West 127 146 500 -720 Descending FlightAware ADS-B
08:46AM 39.8767 -75.2147 255° West 127 146 200 -420 Descending FAA TRACON SMA TRACON (SMA)
08:46AM 39.8761 -75.2181 258° West 127 146 200  Level FAA TRACON SMA TRACON (SMA)
08:48AM 39.8667 -75.2333 187° South  Level FlightAware Approximate